Terminal Aerodrome Forecast
Issued by NWS

Home | Current Version | Previous Version | Text Only | Print | Product List | Glossary On
Versions: 1 2 3 4 5 6 7 8 9 10 11 12 13 14 15 16
000
FTUS44 KEWX 100522
TAFSSF
TAF
KSSF 100522Z 1006/1106 05006KT P6SM BKN070
     FM101200 05003KT P6SM BKN025
     FM101700 13004KT P6SM OVC015
     FM102200 12003KT 6SM BR VCSH OVC009
     FM110300 10003KT 4SM BR VCSH OVC005=

USA.gov is the U.S. government's official web portal to all federal, state and local government web resources and services.